sensor_id;sensor_type;location;lat;lon;timestamp;P1;durP1;ratioP1;P2;durP2;ratioP2
37903;SDS011;23738;50.422;18.758;2023-08-07T07:59:23;0.40;;;0.20;;
37903;SDS011;23738;50.422;18.758;2023-08-07T08:01:53;0.50;;;0.30;;
37903;SDS011;23738;50.422;18.758;2023-08-07T08:04:22;0.20;;;0.10;;
37903;SDS011;23738;50.422;18.758;2023-08-07T08:11:22;0.60;;;0.20;;
37903;SDS011;23738;50.422;18.758;2023-08-07T08:13:51;0.50;;;0.20;;
37903;SDS011;23738;50.422;18.758;2023-08-07T08:16:21;5.10;;;0.30;;
37903;SDS011;23738;50.422;18.758;2023-08-07T08:18:50;0.30;;;0.10;;
37903;SDS011;23738;50.422;18.758;2023-08-07T08:21:20;1.50;;;0.30;;
37903;SDS011;23738;50.422;18.758;2023-08-07T08:23:49;0.70;;;0.30;;
37903;SDS011;23738;50.422;18.758;2023-08-07T08:26:18;0.70;;;0.30;;
37903;SDS011;23738;50.422;18.758;2023-08-07T08:28:47;0.70;;;0.40;;
37903;SDS011;23738;50.422;18.758;2023-08-07T08:31:17;0.80;;;0.30;;
37903;SDS011;23738;50.422;18.758;2023-08-07T08:33:47;0.80;;;0.40;;
37903;SDS011;23738;50.422;18.758;2023-08-07T08:36:17;0.40;;;0.20;;
37903;SDS011;23738;50.422;18.758;2023-08-07T08:38:46;0.30;;;0.20;;
37903;SDS011;23738;50.422;18.758;2023-08-07T08:41:18;0.20;;;0.20;;
37903;SDS011;23738;50.422;18.758;2023-08-07T08:43:48;2.10;;;0.30;;
37903;SDS011;23738;50.422;18.758;2023-08-07T08:46:20;4.60;;;0.20;;
37903;SDS011;23738;50.422;18.758;2023-08-07T08:48:52;0.30;;;0.10;;
37903;SDS011;23738;50.422;18.758;2023-08-07T08:51:26;0.40;;;0.20;;
37903;SDS011;23738;50.422;18.758;2023-08-07T08:53:56;0.40;;;0.20;;
37903;SDS011;23738;50.422;18.758;2023-08-07T08:56:28;0.40;;;0.20;;
37903;SDS011;23738;50.422;18.758;2023-08-07T08:58:58;0.50;;;0.30;;
37903;SDS011;23738;50.422;18.758;2023-08-07T09:01:28;3.40;;;0.20;;
37903;SDS011;23738;50.422;18.758;2023-08-07T09:03:58;0.30;;;0.20;;
37903;SDS011;23738;50.422;18.758;2023-08-07T09:06:31;0.20;;;0.10;;
37903;SDS011;23738;50.422;18.758;2023-08-07T09:09:01;1.80;;;0.30;;
37903;SDS011;23738;50.422;18.758;2023-08-07T09:14:07;1.40;;;0.40;;
37903;SDS011;23738;50.422;18.758;2023-08-07T09:16:39;0.50;;;0.30;;
37903;SDS011;23738;50.422;18.758;2023-08-07T09:19:09;0.50;;;0.30;;
37903;SDS011;23738;50.422;18.758;2023-08-07T09:21:38;1.70;;;0.50;;
37903;SDS011;23738;50.422;18.758;2023-08-07T09:24:08;0.80;;;0.50;;
37903;SDS011;23738;50.422;18.758;2023-08-07T09:26:38;1.00;;;0.40;;
37903;SDS011;23738;50.422;18.758;2023-08-07T09:29:10;2.20;;;1.60;;
37903;SDS011;23738;50.422;18.758;2023-08-07T09:31:42;0.80;;;0.50;;
37903;SDS011;23738;50.422;18.758;2023-08-07T09:34:13;1.80;;;0.40;;
37903;SDS011;23738;50.422;18.758;2023-08-07T09:36:46;1.50;;;0.60;;
37903;SDS011;23738;50.422;18.758;2023-08-07T09:39:16;1.20;;;0.70;;
37903;SDS011;23738;50.422;18.758;2023-08-07T09:41:53;1.60;;;0.60;;
37903;SDS011;23738;50.422;18.758;2023-08-07T09:44:22;1.50;;;0.70;;
37903;SDS011;23738;50.422;18.758;2023-08-07T09:46:52;0.50;;;0.40;;
37903;SDS011;23738;50.422;18.758;2023-08-07T09:49:21;1.10;;;0.70;;
37903;SDS011;23738;50.422;18.758;2023-08-07T09:51:59;1.30;;;0.60;;
37903;SDS011;23738;50.422;18.758;2023-08-07T09:57:04;1.20;;;0.70;;
37903;SDS011;23738;50.422;18.758;2023-08-07T09:59:34;0.90;;;0.60;;
37903;SDS011;23738;50.422;18.758;2023-08-07T10:02:04;1.00;;;0.70;;
37903;SDS011;23738;50.422;18.758;2023-08-07T10:04:36;1.20;;;0.60;;
37903;SDS011;23738;50.422;18.758;2023-08-07T10:07:05;1.60;;;0.90;;
37903;SDS011;23738;50.422;18.758;2023-08-07T10:09:37;2.60;;;1.00;;
37903;SDS011;23738;50.422;18.758;2023-08-07T10:12:08;2.90;;;1.00;;
37903;SDS011;23738;50.422;18.758;2023-08-07T10:14:38;1.80;;;1.00;;
37903;SDS011;23738;50.422;18.758;2023-08-07T10:17:10;4.20;;;1.00;;
37903;SDS011;23738;50.422;18.758;2023-08-07T10:19:40;1.60;;;0.90;;
37903;SDS011;23738;50.422;18.758;2023-08-07T10:22:09;1.50;;;1.00;;
37903;SDS011;23738;50.422;18.758;2023-08-07T10:24:39;3.50;;;1.30;;
37903;SDS011;23738;50.422;18.758;2023-08-07T10:27:10;2.10;;;1.50;;
37903;SDS011;23738;50.422;18.758;2023-08-07T10:29:43;2.50;;;1.40;;
37903;SDS011;23738;50.422;18.758;2023-08-07T10:32:14;1.60;;;1.20;;
37903;SDS011;23738;50.422;18.758;2023-08-07T10:34:49;2.50;;;1.10;;
37903;SDS011;23738;50.422;18.758;2023-08-07T10:37:33;1.90;;;1.00;;
37903;SDS011;23738;50.422;18.758;2023-08-07T10:40:08;2.90;;;1.20;;
37903;SDS011;23738;50.422;18.758;2023-08-07T10:42:53;2.00;;;1.30;;
37903;SDS011;23738;50.422;18.758;2023-08-07T10:45:26;2.10;;;1.20;;
37903;SDS011;23738;50.422;18.758;2023-08-07T10:47:59;2.00;;;1.10;;
37903;SDS011;23738;50.422;18.758;2023-08-07T10:50:33;1.60;;;1.10;;
37903;SDS011;23738;50.422;18.758;2023-08-07T10:53:03;2.00;;;1.00;;
37903;SDS011;23738;50.422;18.758;2023-08-07T10:55:33;1.70;;;1.00;;
37903;SDS011;23738;50.422;18.758;2023-08-07T10:58:22;1.30;;;1.10;;
37903;SDS011;23738;50.422;18.758;2023-08-07T11:00:55;1.90;;;1.10;;
37903;SDS011;23738;50.422;18.758;2023-08-07T11:03:50;2.40;;;1.10;;
37903;SDS011;23738;50.422;18.758;2023-08-07T11:06:24;1.70;;;1.00;;
37903;SDS011;23738;50.422;18.758;2023-08-07T11:08:54;1.70;;;1.10;;
37903;SDS011;23738;50.422;18.758;2023-08-07T11:11:24;2.00;;;1.20;;
37903;SDS011;23738;50.422;18.758;2023-08-07T11:13:56;2.40;;;1.30;;
37903;SDS011;23738;50.422;18.758;2023-08-07T11:16:25;1.90;;;1.20;;
37903;SDS011;23738;50.422;18.758;2023-08-07T11:18:56;2.30;;;1.30;;
37903;SDS011;23738;50.422;18.758;2023-08-07T11:21:26;2.50;;;1.20;;
37903;SDS011;23738;50.422;18.758;2023-08-07T11:23:56;1.90;;;1.40;;
37903;SDS011;23738;50.422;18.758;2023-08-07T11:26:25;3.10;;;1.90;;
37903;SDS011;23738;50.422;18.758;2023-08-07T11:28:55;2.30;;;1.40;;
37903;SDS011;23738;50.422;18.758;2023-08-07T11:31:25;2.80;;;1.40;;
37903;SDS011;23738;50.422;18.758;2023-08-07T11:33:56;3.90;;;1.50;;
37903;SDS011;23738;50.422;18.758;2023-08-07T11:36:25;1.70;;;1.00;;
37903;SDS011;23738;50.422;18.758;2023-08-07T11:38:55;3.30;;;1.40;;
37903;SDS011;23738;50.422;18.758;2023-08-07T11:41:25;2.20;;;1.30;;
37903;SDS011;23738;50.422;18.758;2023-08-07T11:43:54;2.30;;;1.30;;
37903;SDS011;23738;50.422;18.758;2023-08-07T11:46:24;2.50;;;1.50;;
37903;SDS011;23738;50.422;18.758;2023-08-07T11:48:54;1.80;;;1.30;;
37903;SDS011;23738;50.422;18.758;2023-08-07T11:51:25;2.10;;;1.20;;
37903;SDS011;23738;50.422;18.758;2023-08-07T11:53:55;3.80;;;1.30;;
37903;SDS011;23738;50.422;18.758;2023-08-07T11:56:25;3.80;;;1.60;;
37903;SDS011;23738;50.422;18.758;2023-08-07T11:58:56;3.00;;;1.30;;
37903;SDS011;23738;50.422;18.758;2023-08-07T12:01:26;1.50;;;1.20;;
37903;SDS011;23738;50.422;18.758;2023-08-07T12:03:56;2.80;;;1.10;;
37903;SDS011;23738;50.422;18.758;2023-08-07T12:06:36;2.10;;;1.20;;
37903;SDS011;23738;50.422;18.758;2023-08-07T12:09:19;1.90;;;1.30;;
37903;SDS011;23738;50.422;18.758;2023-08-07T12:11:49;1.70;;;1.30;;
37903;SDS011;23738;50.422;18.758;2023-08-07T12:14:22;2.40;;;1.50;;
37903;SDS011;23738;50.422;18.758;2023-08-07T12:16:55;1.80;;;1.20;;
37903;SDS011;23738;50.422;18.758;2023-08-07T12:19:25;1.40;;;1.30;;
37903;SDS011;23738;50.422;18.758;2023-08-07T12:22:07;1.20;;;1.10;;
37903;SDS011;23738;50.422;18.758;2023-08-07T12:24:38;2.20;;;1.80;;
37903;SDS011;23738;50.422;18.758;2023-08-07T12:27:08;2.70;;;1.80;;
37903;SDS011;23738;50.422;18.758;2023-08-07T12:29:37;2.80;;;1.70;;
37903;SDS011;23738;50.422;18.758;2023-08-07T12:32:07;4.00;;;2.20;;
37903;SDS011;23738;50.422;18.758;2023-08-07T12:34:37;3.90;;;2.00;;
37903;SDS011;23738;50.422;18.758;2023-08-07T12:37:07;2.80;;;1.70;;
37903;SDS011;23738;50.422;18.758;2023-08-07T12:39:36;2.30;;;1.50;;
37903;SDS011;23738;50.422;18.758;2023-08-07T12:42:06;3.30;;;1.90;;
37903;SDS011;23738;50.422;18.758;2023-08-07T12:44:35;3.00;;;2.00;;
37903;SDS011;23738;50.422;18.758;2023-08-07T12:47:05;3.80;;;1.60;;
37903;SDS011;23738;50.422;18.758;2023-08-07T12:49:35;3.10;;;1.70;;
37903;SDS011;23738;50.422;18.758;2023-08-07T12:52:05;2.70;;;1.70;;
37903;SDS011;23738;50.422;18.758;2023-08-07T12:54:34;2.00;;;1.30;;
37903;SDS011;23738;50.422;18.758;2023-08-07T12:57:04;2.60;;;1.80;;
37903;SDS011;23738;50.422;18.758;2023-08-07T12:59:33;3.30;;;1.90;;
37903;SDS011;23738;50.422;18.758;2023-08-07T13:02:03;3.60;;;2.10;;
37903;SDS011;23738;50.422;18.758;2023-08-07T13:04:32;2.50;;;2.00;;
37903;SDS011;23738;50.422;18.758;2023-08-07T13:07:02;4.20;;;2.80;;
37903;SDS011;23738;50.422;18.758;2023-08-07T13:09:31;4.70;;;2.90;;
37903;SDS011;23738;50.422;18.758;2023-08-07T13:12:01;3.80;;;3.50;;
37903;SDS011;23738;50.422;18.758;2023-08-07T13:14:31;3.40;;;3.10;;
37903;SDS011;23738;50.422;18.758;2023-08-07T13:17:00;3.10;;;2.20;;
37903;SDS011;23738;50.422;18.758;2023-08-07T13:19:29;3.30;;;2.60;;
37903;SDS011;23738;50.422;18.758;2023-08-07T13:21:59;2.90;;;2.60;;
37903;SDS011;23738;50.422;18.758;2023-08-07T13:24:28;3.80;;;3.20;;
37903;SDS011;23738;50.422;18.758;2023-08-07T13:26:57;5.60;;;3.30;;
37903;SDS011;23738;50.422;18.758;2023-08-07T13:29:26;4.70;;;4.00;;
37903;SDS011;23738;50.422;18.758;2023-08-07T13:31:56;5.30;;;4.30;;
37903;SDS011;23738;50.422;18.758;2023-08-07T13:34:26;6.60;;;5.00;;
37903;SDS011;23738;50.422;18.758;2023-08-07T13:36:55;5.10;;;4.70;;
37903;SDS011;23738;50.422;18.758;2023-08-07T13:39:25;5.10;;;4.40;;
37903;SDS011;23738;50.422;18.758;2023-08-07T13:41:55;6.80;;;5.60;;
37903;SDS011;23738;50.422;18.758;2023-08-07T13:44:24;8.80;;;5.20;;
37903;SDS011;23738;50.422;18.758;2023-08-07T13:46:54;5.50;;;5.00;;
37903;SDS011;23738;50.422;18.758;2023-08-07T13:49:23;6.20;;;4.90;;
37903;SDS011;23738;50.422;18.758;2023-08-07T13:51:52;5.40;;;4.60;;
37903;SDS011;23738;50.422;18.758;2023-08-07T13:54:22;8.60;;;4.40;;
37903;SDS011;23738;50.422;18.758;2023-08-07T13:56:51;3.40;;;2.90;;
37903;SDS011;23738;50.422;18.758;2023-08-07T13:59:21;3.80;;;3.00;;
37903;SDS011;23738;50.422;18.758;2023-08-07T14:01:50;4.40;;;2.50;;
37903;SDS011;23738;50.422;18.758;2023-08-07T14:04:20;4.30;;;2.10;;
37903;SDS011;23738;50.422;18.758;2023-08-07T14:06:50;3.20;;;1.70;;
37903;SDS011;23738;50.422;18.758;2023-08-07T14:09:19;1.80;;;1.60;;
37903;SDS011;23738;50.422;18.758;2023-08-07T14:11:49;2.00;;;1.40;;
37903;SDS011;23738;50.422;18.758;2023-08-07T14:14:18;9.00;;;1.60;;
37903;SDS011;23738;50.422;18.758;2023-08-07T14:16:47;1.90;;;1.40;;
37903;SDS011;23738;50.422;18.758;2023-08-07T14:19:17;1.60;;;1.10;;
37903;SDS011;23738;50.422;18.758;2023-08-07T14:21:46;3.40;;;1.50;;
37903;SDS011;23738;50.422;18.758;2023-08-07T14:24:15;2.40;;;1.30;;
37903;SDS011;23738;50.422;18.758;2023-08-07T14:26:44;2.40;;;1.50;;
37903;SDS011;23738;50.422;18.758;2023-08-07T14:29:14;1.30;;;1.10;;
37903;SDS011;23738;50.422;18.758;2023-08-07T14:31:43;4.00;;;1.50;;
37903;SDS011;23738;50.422;18.758;2023-08-07T14:34:12;3.40;;;1.30;;
37903;SDS011;23738;50.422;18.758;2023-08-07T14:36:41;2.30;;;1.20;;
37903;SDS011;23738;50.422;18.758;2023-08-07T14:39:11;2.90;;;1.40;;
37903;SDS011;23738;50.422;18.758;2023-08-07T14:41:40;2.80;;;1.40;;
37903;SDS011;23738;50.422;18.758;2023-08-07T14:44:09;2.70;;;1.40;;
37903;SDS011;23738;50.422;18.758;2023-08-07T14:46:38;5.80;;;1.80;;
37903;SDS011;23738;50.422;18.758;2023-08-07T14:49:08;2.10;;;1.40;;
37903;SDS011;23738;50.422;18.758;2023-08-07T14:51:37;1.70;;;1.30;;
37903;SDS011;23738;50.422;18.758;2023-08-07T14:54:07;2.80;;;1.10;;
37903;SDS011;23738;50.422;18.758;2023-08-07T14:56:36;2.00;;;1.10;;
37903;SDS011;23738;50.422;18.758;2023-08-07T14:59:05;2.00;;;1.20;;
37903;SDS011;23738;50.422;18.758;2023-08-07T15:01:34;3.70;;;1.40;;
37903;SDS011;23738;50.422;18.758;2023-08-07T15:04:04;1.60;;;1.40;;
37903;SDS011;23738;50.422;18.758;2023-08-07T15:06:33;1.70;;;1.20;;
37903;SDS011;23738;50.422;18.758;2023-08-07T15:09:02;1.70;;;1.00;;
37903;SDS011;23738;50.422;18.758;2023-08-07T15:11:32;4.10;;;1.10;;
37903;SDS011;23738;50.422;18.758;2023-08-07T15:14:01;2.20;;;0.80;;
37903;SDS011;23738;50.422;18.758;2023-08-07T15:16:31;2.00;;;0.90;;
37903;SDS011;23738;50.422;18.758;2023-08-07T15:19:02;2.50;;;0.80;;
37903;SDS011;23738;50.422;18.758;2023-08-07T15:21:31;1.80;;;0.70;;
37903;SDS011;23738;50.422;18.758;2023-08-07T15:24:00;2.20;;;0.70;;
37903;SDS011;23738;50.422;18.758;2023-08-07T15:26:30;0.60;;;0.40;;
37903;SDS011;23738;50.422;18.758;2023-08-07T15:29:00;0.80;;;0.60;;
37903;SDS011;23738;50.422;18.758;2023-08-07T15:31:31;1.00;;;0.70;;
37903;SDS011;23738;50.422;18.758;2023-08-07T15:34:00;1.20;;;0.70;;
37903;SDS011;23738;50.422;18.758;2023-08-07T15:36:30;0.90;;;0.70;;
37903;SDS011;23738;50.422;18.758;2023-08-07T15:38:59;1.90;;;0.70;;
37903;SDS011;23738;50.422;18.758;2023-08-07T15:41:29;1.40;;;0.70;;
37903;SDS011;23738;50.422;18.758;2023-08-07T15:43:58;1.20;;;0.70;;
37903;SDS011;23738;50.422;18.758;2023-08-07T15:46:27;3.10;;;0.80;;
37903;SDS011;23738;50.422;18.758;2023-08-07T15:48:57;1.60;;;1.00;;
37903;SDS011;23738;50.422;18.758;2023-08-07T15:51:27;2.00;;;1.40;;
37903;SDS011;23738;50.422;18.758;2023-08-07T15:53:56;2.10;;;1.60;;
37903;SDS011;23738;50.422;18.758;2023-08-07T15:56:25;2.30;;;1.30;;
37903;SDS011;23738;50.422;18.758;2023-08-07T15:58:55;4.30;;;3.40;;
37903;SDS011;23738;50.422;18.758;2023-08-07T16:01:24;12.90;;;11.50;;
37903;SDS011;23738;50.422;18.758;2023-08-07T16:03:54;20.50;;;16.30;;
37903;SDS011;23738;50.422;18.758;2023-08-07T16:06:24;21.20;;;18.70;;
37903;SDS011;23738;50.422;18.758;2023-08-07T16:08:54;13.70;;;12.50;;
37903;SDS011;23738;50.422;18.758;2023-08-07T16:11:24;12.60;;;11.40;;
37903;SDS011;23738;50.422;18.758;2023-08-07T16:13:53;10.90;;;10.00;;
37903;SDS011;23738;50.422;18.758;2023-08-07T16:16:22;4.80;;;4.30;;
37903;SDS011;23738;50.422;18.758;2023-08-07T16:18:52;2.40;;;2.20;;
37903;SDS011;23738;50.422;18.758;2023-08-07T16:21:21;2.80;;;1.90;;
37903;SDS011;23738;50.422;18.758;2023-08-07T16:23:50;2.40;;;2.00;;
37903;SDS011;23738;50.422;18.758;2023-08-07T16:26:20;2.70;;;2.10;;
37903;SDS011;23738;50.422;18.758;2023-08-07T16:28:49;1.60;;;1.40;;
37903;SDS011;23738;50.422;18.758;2023-08-07T16:31:18;1.80;;;1.10;;
37903;SDS011;23738;50.422;18.758;2023-08-07T16:33:47;18.60;;;2.30;;
37903;SDS011;23738;50.422;18.758;2023-08-07T16:36:17;2.00;;;1.60;;
37903;SDS011;23738;50.422;18.758;2023-08-07T16:38:46;2.20;;;1.60;;
37903;SDS011;23738;50.422;18.758;2023-08-07T16:41:16;5.50;;;1.80;;
37903;SDS011;23738;50.422;18.758;2023-08-07T16:43:45;2.70;;;1.60;;
37903;SDS011;23738;50.422;18.758;2023-08-07T16:46:15;1.30;;;1.10;;
37903;SDS011;23738;50.422;18.758;2023-08-07T16:48:45;2.00;;;1.50;;
37903;SDS011;23738;50.422;18.758;2023-08-07T16:51:14;1.90;;;1.60;;
37903;SDS011;23738;50.422;18.758;2023-08-07T16:53:45;1.90;;;1.50;;
37903;SDS011;23738;50.422;18.758;2023-08-07T16:56:14;1.80;;;1.30;;
37903;SDS011;23738;50.422;18.758;2023-08-07T16:58:43;1.80;;;1.40;;
37903;SDS011;23738;50.422;18.758;2023-08-07T17:01:14;4.40;;;1.40;;
37903;SDS011;23738;50.422;18.758;2023-08-07T17:03:44;2.50;;;1.10;;
37903;SDS011;23738;50.422;18.758;2023-08-07T17:06:13;1.40;;;1.20;;
37903;SDS011;23738;50.422;18.758;2023-08-07T17:08:42;1.70;;;1.50;;
37903;SDS011;23738;50.422;18.758;2023-08-07T17:11:15;1.90;;;1.70;;
37903;SDS011;23738;50.422;18.758;2023-08-07T17:13:44;1.80;;;1.50;;
37903;SDS011;23738;50.422;18.758;2023-08-07T17:16:14;2.30;;;1.50;;
37903;SDS011;23738;50.422;18.758;2023-08-07T17:18:43;2.00;;;1.20;;
37903;SDS011;23738;50.422;18.758;2023-08-07T17:21:12;2.00;;;1.80;;
37903;SDS011;23738;50.422;18.758;2023-08-07T17:23:42;1.90;;;1.40;;
37903;SDS011;23738;50.422;18.758;2023-08-07T17:26:11;2.00;;;1.70;;
37903;SDS011;23738;50.422;18.758;2023-08-07T17:28:40;1.90;;;1.30;;
37903;SDS011;23738;50.422;18.758;2023-08-07T17:31:09;3.10;;;1.30;;
37903;SDS011;23738;50.422;18.758;2023-08-07T17:33:39;4.00;;;1.10;;
37903;SDS011;23738;50.422;18.758;2023-08-07T17:36:08;1.40;;;1.30;;
37903;SDS011;23738;50.422;18.758;2023-08-07T17:38:37;1.90;;;1.30;;
37903;SDS011;23738;50.422;18.758;2023-08-07T17:41:07;1.80;;;1.30;;
37903;SDS011;23738;50.422;18.758;2023-08-07T17:43:36;1.90;;;1.30;;
37903;SDS011;23738;50.422;18.758;2023-08-07T17:46:06;2.60;;;1.30;;
37903;SDS011;23738;50.422;18.758;2023-08-07T17:48:39;6.20;;;1.70;;
37903;SDS011;23738;50.422;18.758;2023-08-07T17:51:11;3.10;;;2.10;;
37903;SDS011;23738;50.422;18.758;2023-08-07T17:53:43;2.20;;;1.90;;
37903;SDS011;23738;50.422;18.758;2023-08-07T17:56:13;4.40;;;2.70;;
37903;SDS011;23738;50.422;18.758;2023-08-07T17:58:43;2.80;;;2.10;;
37903;SDS011;23738;50.422;18.758;2023-08-07T18:01:12;3.10;;;1.70;;
37903;SDS011;23738;50.422;18.758;2023-08-07T18:03:42;6.70;;;1.40;;
37903;SDS011;23738;50.422;18.758;2023-08-07T18:06:13;3.60;;;1.60;;
37903;SDS011;23738;50.422;18.758;2023-08-07T18:08:42;1.50;;;1.30;;
37903;SDS011;23738;50.422;18.758;2023-08-07T18:11:11;5.00;;;1.50;;
37903;SDS011;23738;50.422;18.758;2023-08-07T18:13:41;1.80;;;1.40;;
37903;SDS011;23738;50.422;18.758;2023-08-07T18:16:10;3.50;;;1.20;;
37903;SDS011;23738;50.422;18.758;2023-08-07T18:18:39;4.30;;;1.70;;
37903;SDS011;23738;50.422;18.758;2023-08-07T18:21:10;2.80;;;1.10;;
37903;SDS011;23738;50.422;18.758;2023-08-07T18:23:39;1.50;;;1.10;;
37903;SDS011;23738;50.422;18.758;2023-08-07T18:26:08;1.40;;;1.30;;
37903;SDS011;23738;50.422;18.758;2023-08-07T18:28:38;1.80;;;1.20;;
37903;SDS011;23738;50.422;18.758;2023-08-07T18:31:07;1.50;;;1.10;;
37903;SDS011;23738;50.422;18.758;2023-08-07T18:33:37;3.20;;;1.20;;
37903;SDS011;23738;50.422;18.758;2023-08-07T18:36:06;5.40;;;2.60;;
37903;SDS011;23738;50.422;18.758;2023-08-07T18:38:36;1.00;;;0.90;;
37903;SDS011;23738;50.422;18.758;2023-08-07T18:41:05;1.60;;;1.30;;
37903;SDS011;23738;50.422;18.758;2023-08-07T18:43:35;1.80;;;1.10;;
37903;SDS011;23738;50.422;18.758;2023-08-07T18:46:05;3.70;;;1.50;;
37903;SDS011;23738;50.422;18.758;2023-08-07T18:48:35;2.90;;;1.40;;
37903;SDS011;23738;50.422;18.758;2023-08-07T18:51:05;2.50;;;1.50;;
37903;SDS011;23738;50.422;18.758;2023-08-07T18:53:36;4.30;;;1.70;;
37903;SDS011;23738;50.422;18.758;2023-08-07T18:56:06;2.80;;;1.70;;
37903;SDS011;23738;50.422;18.758;2023-08-07T18:58:36;2.30;;;1.80;;
37903;SDS011;23738;50.422;18.758;2023-08-07T19:01:05;2.70;;;1.80;;
37903;SDS011;23738;50.422;18.758;2023-08-07T19:03:35;1.80;;;1.20;;
37903;SDS011;23738;50.422;18.758;2023-08-07T19:06:04;1.70;;;1.10;;
37903;SDS011;23738;50.422;18.758;2023-08-07T19:08:34;2.60;;;1.10;;
37903;SDS011;23738;50.422;18.758;2023-08-07T19:11:05;1.30;;;0.90;;
37903;SDS011;23738;50.422;18.758;2023-08-07T19:13:36;2.00;;;1.20;;
37903;SDS011;23738;50.422;18.758;2023-08-07T19:16:05;4.30;;;1.90;;
37903;SDS011;23738;50.422;18.758;2023-08-07T19:18:36;1.30;;;0.90;;
37903;SDS011;23738;50.422;18.758;2023-08-07T19:21:05;1.50;;;0.80;;
37903;SDS011;23738;50.422;18.758;2023-08-07T19:23:35;3.40;;;0.80;;
37903;SDS011;23738;50.422;18.758;2023-08-07T19:26:05;1.30;;;0.60;;
37903;SDS011;23738;50.422;18.758;2023-08-07T19:28:35;1.70;;;0.90;;
37903;SDS011;23738;50.422;18.758;2023-08-07T19:31:07;3.00;;;0.80;;
37903;SDS011;23738;50.422;18.758;2023-08-07T19:33:37;3.20;;;0.80;;
37903;SDS011;23738;50.422;18.758;2023-08-07T19:36:07;1.50;;;0.80;;
37903;SDS011;23738;50.422;18.758;2023-08-07T19:38:38;0.90;;;0.60;;
37903;SDS011;23738;50.422;18.758;2023-08-07T19:41:09;1.60;;;0.60;;
37903;SDS011;23738;50.422;18.758;2023-08-07T19:43:39;1.90;;;0.80;;
37903;SDS011;23738;50.422;18.758;2023-08-07T19:46:10;2.20;;;0.80;;
37903;SDS011;23738;50.422;18.758;2023-08-07T19:48:39;1.00;;;0.60;;
37903;SDS011;23738;50.422;18.758;2023-08-07T19:51:09;1.00;;;0.50;;
37903;SDS011;23738;50.422;18.758;2023-08-07T19:53:41;1.00;;;0.60;;
37903;SDS011;23738;50.422;18.758;2023-08-07T19:56:11;1.00;;;0.50;;
37903;SDS011;23738;50.422;18.758;2023-08-07T19:58:40;1.50;;;0.50;;
37903;SDS011;23738;50.422;18.758;2023-08-07T20:01:10;1.00;;;0.70;;
37903;SDS011;23738;50.422;18.758;2023-08-07T20:03:41;1.90;;;0.50;;
37903;SDS011;23738;50.422;18.758;2023-08-07T20:06:10;2.40;;;0.50;;
37903;SDS011;23738;50.422;18.758;2023-08-07T20:08:40;2.00;;;0.60;;
37903;SDS011;23738;50.422;18.758;2023-08-07T20:11:09;6.20;;;0.70;;
37903;SDS011;23738;50.422;18.758;2023-08-07T20:13:38;2.20;;;0.70;;
37903;SDS011;23738;50.422;18.758;2023-08-07T20:16:09;3.10;;;0.80;;
37903;SDS011;23738;50.422;18.758;2023-08-07T20:18:38;3.70;;;0.80;;
37903;SDS011;23738;50.422;18.758;2023-08-07T20:21:08;1.90;;;0.60;;
37903;SDS011;23738;50.422;18.758;2023-08-07T20:23:38;1.80;;;0.60;;
37903;SDS011;23738;50.422;18.758;2023-08-07T20:26:08;1.80;;;0.60;;
37903;SDS011;23738;50.422;18.758;2023-08-07T20:28:37;2.10;;;0.60;;
37903;SDS011;23738;50.422;18.758;2023-08-07T20:31:06;0.70;;;0.70;;
37903;SDS011;23738;50.422;18.758;2023-08-07T20:33:35;1.70;;;0.70;;
37903;SDS011;23738;50.422;18.758;2023-08-07T20:36:05;2.40;;;0.70;;
37903;SDS011;23738;50.422;18.758;2023-08-07T20:38:34;1.00;;;0.60;;
37903;SDS011;23738;50.422;18.758;2023-08-07T20:41:03;8.90;;;1.00;;
37903;SDS011;23738;50.422;18.758;2023-08-07T20:43:33;1.20;;;0.50;;
37903;SDS011;23738;50.422;18.758;2023-08-07T20:46:02;2.20;;;0.90;;
37903;SDS011;23738;50.422;18.758;2023-08-07T20:48:32;1.60;;;0.60;;
37903;SDS011;23738;50.422;18.758;2023-08-07T20:51:01;0.90;;;0.60;;
37903;SDS011;23738;50.422;18.758;2023-08-07T20:53:31;0.40;;;0.40;;
37903;SDS011;23738;50.422;18.758;2023-08-07T20:56:01;1.10;;;0.50;;
37903;SDS011;23738;50.422;18.758;2023-08-07T20:58:30;3.40;;;0.70;;
37903;SDS011;23738;50.422;18.758;2023-08-07T21:01:00;2.30;;;0.60;;
37903;SDS011;23738;50.422;18.758;2023-08-07T21:03:30;1.50;;;0.60;;
37903;SDS011;23738;50.422;18.758;2023-08-07T21:06:00;1.10;;;0.60;;
37903;SDS011;23738;50.422;18.758;2023-08-07T21:08:30;1.00;;;0.60;;
37903;SDS011;23738;50.422;18.758;2023-08-07T21:11:00;4.90;;;1.40;;
37903;SDS011;23738;50.422;18.758;2023-08-07T21:13:29;1.10;;;0.60;;
37903;SDS011;23738;50.422;18.758;2023-08-07T21:16:02;2.00;;;0.60;;
37903;SDS011;23738;50.422;18.758;2023-08-07T21:18:32;4.80;;;1.50;;
37903;SDS011;23738;50.422;18.758;2023-08-07T21:21:01;3.40;;;0.70;;
37903;SDS011;23738;50.422;18.758;2023-08-07T21:23:31;1.30;;;0.50;;
37903;SDS011;23738;50.422;18.758;2023-08-07T21:26:01;2.60;;;0.60;;
37903;SDS011;23738;50.422;18.758;2023-08-07T21:28:31;1.30;;;0.50;;
37903;SDS011;23738;50.422;18.758;2023-08-07T21:31:02;3.60;;;0.80;;
37903;SDS011;23738;50.422;18.758;2023-08-07T21:33:33;1.00;;;0.60;;
37903;SDS011;23738;50.422;18.758;2023-08-07T21:36:03;1.00;;;0.50;;
37903;SDS011;23738;50.422;18.758;2023-08-07T21:38:34;1.10;;;0.50;;
37903;SDS011;23738;50.422;18.758;2023-08-07T21:41:03;0.70;;;0.40;;
37903;SDS011;23738;50.422;18.758;2023-08-07T21:43:33;0.60;;;0.50;;
37903;SDS011;23738;50.422;18.758;2023-08-07T21:46:02;1.70;;;0.60;;
37903;SDS011;23738;50.422;18.758;2023-08-07T21:48:32;0.90;;;0.40;;
37903;SDS011;23738;50.422;18.758;2023-08-07T21:51:02;3.50;;;0.40;;
37903;SDS011;23738;50.422;18.758;2023-08-07T21:53:32;1.70;;;0.20;;
37903;SDS011;23738;50.422;18.758;2023-08-07T21:56:01;1.80;;;0.30;;
37903;SDS011;23738;50.422;18.758;2023-08-07T21:58:31;0.60;;;0.40;;
37903;SDS011;23738;50.422;18.758;2023-08-07T22:01:00;1.10;;;0.40;;
37903;SDS011;23738;50.422;18.758;2023-08-07T22:03:30;0.40;;;0.40;;
37903;SDS011;23738;50.422;18.758;2023-08-07T22:05:59;2.10;;;0.30;;
37903;SDS011;23738;50.422;18.758;2023-08-07T22:08:28;1.80;;;0.40;;
37903;SDS011;23738;50.422;18.758;2023-08-07T22:10:58;4.00;;;0.30;;
37903;SDS011;23738;50.422;18.758;2023-08-07T22:13:27;3.70;;;0.40;;
37903;SDS011;23738;50.422;18.758;2023-08-07T22:15:57;0.80;;;0.40;;
37903;SDS011;23738;50.422;18.758;2023-08-07T22:18:26;0.70;;;0.30;;
37903;SDS011;23738;50.422;18.758;2023-08-07T22:20:56;1.10;;;0.30;;
37903;SDS011;23738;50.422;18.758;2023-08-07T22:23:25;1.00;;;0.30;;
37903;SDS011;23738;50.422;18.758;2023-08-07T22:25:54;1.00;;;0.30;;
37903;SDS011;23738;50.422;18.758;2023-08-07T22:28:24;1.20;;;0.40;;
37903;SDS011;23738;50.422;18.758;2023-08-07T22:30:53;1.00;;;0.30;;
37903;SDS011;23738;50.422;18.758;2023-08-07T22:33:23;1.50;;;0.40;;
37903;SDS011;23738;50.422;18.758;2023-08-07T22:35:52;1.00;;;0.30;;
37903;SDS011;23738;50.422;18.758;2023-08-07T22:38:21;1.70;;;0.30;;
37903;SDS011;23738;50.422;18.758;2023-08-07T22:40:51;1.00;;;0.30;;
37903;SDS011;23738;50.422;18.758;2023-08-07T22:43:20;0.50;;;0.30;;
37903;SDS011;23738;50.422;18.758;2023-08-07T22:45:49;1.00;;;0.40;;
37903;SDS011;23738;50.422;18.758;2023-08-07T22:48:18;2.00;;;0.50;;
37903;SDS011;23738;50.422;18.758;2023-08-07T22:50:48;4.80;;;0.30;;
37903;SDS011;23738;50.422;18.758;2023-08-07T22:53:17;3.90;;;0.30;;
37903;SDS011;23738;50.422;18.758;2023-08-07T22:55:47;1.60;;;0.60;;
37903;SDS011;23738;50.422;18.758;2023-08-07T22:58:17;0.90;;;0.40;;